Decoded Metar for KPTB (PETERSBURG in VA, USA) (IATA:PTB) | Meteo·Mobile Aviation Weather
aviador You're here:

KPTB Decoded Metar

PETERSBURG in VA, USA
Report Time2018-12-18 16:55:00
UTC Time2018-12-18 17:21:37
Flight Rules vfr VFR
Wind320° at 07 kt
W.Decomp.*RWY 32: 6.9 kt HW 1.0 kt RCW
RWY 05: 1.0 kt HW 6.9 kt LCW
W.Rank320° ranks 25
Current wind is above 320° avg. (6.3)
Visibility9999 m
Phenomena:N/A
Clouds:N/A
Expected CloudBase > 4,800 ft AGL from Temp-Dew spread
CeilingNone
Temp07°C (ISA -8)
Dew Point-5°C (42% RH)
AAT1.9°C
QNH1022 hPa
Density Alt-965 ft
Elevation194 ft
Report Wrong Elevation
Raw Report
METAR KPTB 181655Z AUTO 32007KT 10SM CLR 07/M05 A3017 RMK AO2 T00741049=

Extra information for KPTB:More info

Metar Taf Metar & Taf Last 4 Metars F.Rules Stats Wind Profile Meteogram Temp Stats Airport Information Weather charts Add Link Nearby VenuesMetar ALERT Operation Metar Decoded Social comments

AIRNAV info for KPTB